Current Conditions
Mostly Cloudy
Conditions



Pressure
1021.92 (mb) - 30.18 (inHG)
Visibility

6.2 (mimiles) - 10.0 (km)
   Temperature
20  °C
68°F
17  °C
Dewpoint
83  %
 Humidity
   Wind Speed
8  mph
7  kts
13  km/h
3.6  m/s
   Wind Direction
 220°
South West
   Airport Data
EGGD
Location Bristol International 15 mi (24.14 km)
Metar :EGGD 220920Z 22007KT 9999 BKN012 20/17 Q1022
Mon 22nd July 10:20 am
   Raw Metar Info
Raw METAR is the most common format in the world for the transmission of observational weather data. It is highly standardized through the International Civil Aviation Organization (ICAO), which allows it to be understood throughout most of the world.
   API Info
Data Provided by
https://www.checkwx.com/weather/EGGD
   © Info
CSS/SVG/PHP scripts were developed by weather34.com for use in the weather34 template © 2015-2019

Guide Info provided by Metar-Wikipedia